Flight Track Log - Related Links

Times and Time Zones

All times are in EDT time to prevent confusion due to time zone crossing. See the FIN3126 flight status page for this flight to view local times or setup timezone preferences in your user account.

Time Position Orientation Groundspeed Altitude Reporting Facility
EDT Latitude Longitude Course Direction KTS MPH feet Rate Location/Type
Tue 02:57:00 AM 51.7148 -0.0342 48° Northeast  Level Estimated
Tue 02:58:00 AM 51.7935 0.1092 48° Northeast  Level Estimated
Tue 02:59:00 AM 51.8721 0.2531 48° Northeast  Level Estimated
Tue 03:00:00 AM 51.9505 0.3975 49° Northeast  Level Estimated
Tue 03:01:00 AM 52.0287 0.5424 49° Northeast  Level Estimated
Tue 03:02:00 AM 52.1025 0.6799 49° Northeast  Level Estimated
Tue 03:03:00 AM 52.1761 0.8179 49° Northeast  Level Estimated
Tue 03:04:00 AM 52.2496 0.9564 49° Northeast  Level Estimated
Tue 03:05:00 AM 52.3230 1.0953 49° Northeast  Level Estimated
Tue 03:06:00 AM 52.3961 1.2347 49° Northeast  Level Estimated
Tue 03:07:00 AM 52.4691 1.3745 49° Northeast  Level Estimated
Tue 03:08:00 AM 52.5420 1.5148 49° Northeast  Level Estimated
Tue 03:09:00 AM 52.6147 1.6556 50° Northeast  Level Estimated
Tue 03:10:00 AM 52.6872 1.7968 50° Northeast  Level Estimated
Tue 03:11:00 AM 52.7595 1.9385 50° Northeast  Level Estimated
Tue 03:12:00 AM 52.8317 2.0807 50° Northeast  Level Estimated
Tue 03:13:00 AM 52.9037 2.2233 50° Northeast  Level Estimated
Tue 03:14:00 AM 52.9755 2.3664 50° Northeast  Level Estimated
Tue 03:15:00 AM 53.0472 2.5100 50° Northeast  Level Estimated
Tue 03:16:00 AM 53.1186 2.6541 50° Northeast  Level Estimated
Tue 03:17:00 AM 53.1899 2.7986 51° Northeast  Level Estimated
Tue 03:18:00 AM 53.2611 2.9437 51° Northeast  Level Estimated
Tue 03:19:00 AM 53.3320 3.0892 51° Northeast  Level Estimated
Tue 03:20:00 AM 53.4028 3.2352 51° Northeast  Level Estimated
Tue 03:21:00 AM 53.4796 3.3946 51° Northeast  Level Estimated
Tue 03:22:00 AM 53.5562 3.5546 51° Northeast  Level Estimated
Tue 03:23:00 AM 53.6326 3.7152 51° Northeast  Level Estimated
Tue 03:24:00 AM 53.7088 3.8764 51° Northeast  Level Estimated
Tue 03:25:00 AM 53.7848 4.0381 51° Northeast  Level Estimated
Tue 03:26:00 AM 53.8605 4.2005 52° Northeast  Level Estimated
Tue 03:27:00 AM 53.9360 4.3634 52° Northeast  Level Estimated
Tue 03:28:00 AM 54.0113 4.5269 52° Northeast  Level Estimated
Tue 03:29:00 AM 54.0864 4.6910 52° Northeast  Level Estimated
Tue 03:30:00 AM 54.1613 4.8557 52° Northeast  Level Estimated
Tue 03:31:00 AM 54.2359 5.0210 52° Northeast  Level Estimated
Tue 03:32:00 AM 54.3103 5.1869 52° Northeast  Level Estimated
Tue 03:33:00 AM 54.3845 5.3534 53° Northeast  Level Estimated
Tue 03:34:00 AM 54.4584 5.5205 53° Northeast  Level Estimated
Tue 03:35:00 AM 54.5321 5.6882 53° Northeast  Level Estimated
Tue 03:36:00 AM 54.6056 5.8566 53° Northeast  Level Estimated
Tue 03:37:00 AM 54.6788 6.0255 53° Northeast  Level Estimated
Tue 03:38:00 AM 54.7518 6.1950 53° Northeast  Level Estimated
Tue 03:39:00 AM 54.8246 6.3651 53° Northeast  Level Estimated
Tue 03:40:00 AM 54.8971 6.5359 54° Northeast  Level Estimated
Tue 03:41:00 AM 54.9694 6.7073 54° Northeast  Level Estimated
Tue 03:42:00 AM 55.0415 6.8792 54° Northeast  Level Estimated
Tue 03:43:00 AM 55.1133 7.0518 54° Northeast  Level Estimated
Tue 03:44:00 AM 55.1848 7.2251 54° Northeast  Level Estimated
Tue 03:45:00 AM 55.2562 7.3989 54° Northeast  Level Estimated
Tue 03:46:00 AM 55.3272 7.5734 54° Northeast  Level Estimated
Tue 03:47:00 AM 55.3980 7.7485 54° Northeast  Level Estimated
Tue 03:48:00 AM 55.4686 7.9242 55° Northeast  Level Estimated
Tue 03:49:00 AM 55.5389 8.1006 55° Northeast  Level Estimated
Tue 03:50:00 AM 55.6090 8.2775 55° Northeast  Level Estimated
Tue 03:51:00 AM 55.6788 8.4552 55° Northeast  Level Estimated
Tue 03:52:00 AM 55.7483 8.6334 55° Northeast  Level Estimated
Tue 03:53:00 AM 55.8176 8.8123 55° Northeast  Level Estimated
Tue 03:54:00 AM 55.8867 8.9918 56° Northeast  Level Estimated
Tue 03:55:00 AM 55.9554 9.1720 56° Northeast  Level Estimated
Tue 03:56:00 AM 56.0239 9.3528 56° Northeast  Level Estimated
Tue 03:57:00 AM 56.0922 9.5342 56° Northeast  Level Estimated
Tue 03:58:00 AM 56.1601 9.7163 56° Northeast  Level Estimated
Tue 03:59:00 AM 56.2278 9.8990 56° Northeast  Level Estimated
Tue 04:00:00 AM 56.2953 10.0824 56° Northeast  Level Estimated
Tue 04:01:00 AM 56.3624 10.2664 57° Northeast  Level Estimated
Tue 04:02:00 AM 56.4293 10.4511 57° Northeast  Level Estimated
Tue 04:03:00 AM 56.4959 10.6364 57° Northeast  Level Estimated
Tue 04:04:00 AM 56.5623 10.8224 57° Northeast  Level Estimated
Tue 04:05:00 AM 56.6283 11.0090 57° Northeast  Level Estimated
Tue 04:06:00 AM 56.6941 11.1963 57° Northeast  Level Estimated
Tue 04:07:00 AM 56.7596 11.3842 57° Northeast  Level Estimated
Tue 04:08:00 AM 56.8248 11.5728 58° Northeast  Level Estimated
Tue 04:09:00 AM 56.8897 11.7620 58° Northeast  Level Estimated
Tue 04:10:00 AM 56.9543 11.9519 58° Northeast  Level Estimated
Tue 04:11:00 AM 57.0187 12.1425 58° Northeast  Level Estimated
Tue 04:12:00 AM 57.0828 12.3337 58° Northeast  Level Estimated
Tue 04:13:00 AM 57.1465 12.5256 58° Northeast  Level Estimated
Tue 04:14:00 AM 57.2100 12.7181 59° Northeast  Level Estimated
Tue 04:15:00 AM 57.2732 12.9113 59° Northeast  Level Estimated
Tue 04:16:00 AM 57.3360 13.1052 59° Northeast  Level Estimated
Tue 04:17:00 AM 57.3986 13.2997 59° Northeast  Level Estimated
Tue 04:18:00 AM 57.4609 13.4949 59° Northeast  Level Estimated
Tue 04:19:00 AM 57.5229 13.6908 59° Northeast  Level Estimated
Tue 04:20:00 AM 57.5846 13.8873 60° Northeast  Level Estimated
Tue 04:21:00 AM 57.6459 14.0844 60° Northeast  Level Estimated
Tue 04:22:00 AM 57.7070 14.2823 60° Northeast  Level Estimated
Tue 04:23:00 AM 57.7677 14.4808 60° Northeast  Level Estimated
Tue 04:24:00 AM 57.8282 14.6800 60° Northeast  Level Estimated
Tue 04:25:00 AM 57.8883 14.8799 60° Northeast  Level Estimated
Tue 04:26:00 AM 57.9481 15.0804 61° Northeast  Level Estimated
Tue 04:27:00 AM 58.0076 15.2816 61° Northeast  Level Estimated
Tue 04:28:00 AM 58.0668 15.4834 61° Northeast  Level Estimated
Tue 04:29:00 AM 58.1256 15.6859 61° Northeast  Level Estimated
Tue 04:30:00 AM 58.1842 15.8891 61° Northeast  Level Estimated
Tue 04:31:00 AM 58.2424 16.0930 61° Northeast  Level Estimated
Tue 04:32:00 AM 58.3002 16.2975 62° Northeast  Level Estimated
Tue 04:33:00 AM 58.3578 16.5027 62° Northeast  Level Estimated
Tue 04:34:00 AM 58.4146 16.7071 62° Northeast  Level Estimated
Tue 04:35:00 AM 58.4711 16.9121 62° Northeast  Level Estimated
Tue 04:36:00 AM 58.5272 17.1178 62° Northeast  Level Estimated
Tue 04:37:00 AM 58.5831 17.3241 62° Northeast  Level Estimated
Tue 04:38:00 AM 58.6386 17.5311 63° Northeast  Level Estimated
Tue 04:39:00 AM 58.6937 17.7387 63° Northeast  Level Estimated
Tue 04:40:00 AM 58.7486 17.9470 63° Northeast  Level Estimated
Tue 04:41:00 AM 58.8030 18.1560 63° Northeast  Level Estimated
Tue 04:42:00 AM 58.8572 18.3656 63° Northeast  Level Estimated
Tue 04:43:00 AM 58.9110 18.5759 64° Northeast  Level Estimated
Tue 04:44:00 AM 58.9645 18.7868 64° Northeast  Level Estimated
Tue 04:45:00 AM 59.0176 18.9984 64° Northeast  Level Estimated
Tue 04:46:00 AM 59.0704 19.2106 64° Northeast  Level Estimated
Tue 04:47:00 AM 59.1228 19.4235 64° Northeast  Level Estimated
Tue 04:48:00 AM 59.1749 19.6370 64° Northeast  Level Estimated
Tue 04:49:00 AM 59.2266 19.8512 65° Northeast  Level Estimated
Tue 04:50:00 AM 59.2780 20.0660 65° Northeast  Level Estimated
Tue 04:51:00 AM 59.3290 20.2815 65° Northeast  Level Estimated
Tue 04:52:00 AM 59.3797 20.4976 65° Northeast  Level Estimated
Tue 04:53:00 AM 59.4300 20.7144 65° Northeast  Level Estimated
Tue 04:54:00 AM 59.4795 20.9302 66° East  Level Estimated
Tue 04:55:00 AM 59.5288 21.1467 66° East  Level Estimated
Tue 04:56:00 AM 59.5776 21.3638 66° East  Level Estimated
Tue 04:57:00 AM 59.6261 21.5815 66° East  Level Estimated
Tue 04:58:00 AM 59.6743 21.7999 66° East  Level Estimated
Tue 04:59:00 AM 59.7221 22.0188 67° East  Level Estimated
Tue 05:00:00 AM 59.7695 22.2384 67° East  Level Estimated
Tue 05:01:00 AM 59.8166 22.4587 67° East  Level Estimated
Tue 05:02:00 AM 59.8632 22.6795 67° East  Level Estimated
Tue 05:03:00 AM 59.9095 22.9010 67° East  Level Estimated
Tue 05:04:00 AM 59.9555 23.1230 67° East  Level Estimated
Tue 05:05:00 AM 60.0010 23.3457 68° East  Level Estimated
Tue 05:06:00 AM 60.0462 23.5690 68° East  Level Estimated
Tue 05:07:00 AM 60.0910 23.7929 68° East  Level Estimated
Tue 05:08:00 AM 60.1355 24.0175 68° East  Level Estimated
Tue 05:09:00 AM 60.1795 24.2426 68° East  Level Estimated
Tue 05:10:00 AM 60.2232 24.4683 69° East  Level Estimated
Tue 05:11:00 AM 60.2665 24.6947 69° East  Level Estimated
Tue 05:12:00 AM 60.3094 24.9216 69° East  Level Estimated
Tue 05:13:00 AM 60.3172 24.9633 69° East  Level Estimated
Tue 05:14:00 AM 60.3172 24.9633 North  Level Estimated
Tue 05:15:00 AM 60.3172 24.9633 North  Level Estimated
Tue 05:16:00 AM 60.3172 24.9633 North  Level Estimated
Tue 05:17:00 AM 60.3172 24.9633 North  Level Estimated
Tue 05:18:00 AM 60.3172 24.9633 North  Level Estimated
Tue 05:19:00 AM 60.3172 24.9633 North  Level Estimated
Tue 05:20:00 AM 60.3172 24.9633 North  Level Estimated
Tue 05:21:00 AM 60.3172 24.9633 North  Level Estimated
Tue 05:22:00 AM 60.3172 24.9633 North  Level Estimated
Tue 05:23:00 AM 60.3172 24.9633 North  Level Estimated
Tue 05:24:00 AM 60.3172 24.9633 North  Level Estimated
Tue 05:25:00 AM 60.3172 24.9633 North  Level Estimated
Tue 05:26:00 AM 60.3172 24.9633 North  Level Estimated

Login

Don't have an account? Register now (free) for customized features, flight alerts, and more!